sensor_id;sensor_type;location;lat;lon;timestamp;temperature;humidity
4896;DHT22;2463;49.948;8.472;2022-12-18T00:01:18;-5.50;99.90
4896;DHT22;2463;49.948;8.472;2022-12-18T00:03:45;-5.50;99.90
4896;DHT22;2463;49.948;8.472;2022-12-18T00:06:16;-5.50;99.90
4896;DHT22;2463;49.948;8.472;2022-12-18T00:08:43;-5.60;99.90
4896;DHT22;2463;49.948;8.472;2022-12-18T00:11:18;-5.60;99.90
4896;DHT22;2463;49.948;8.472;2022-12-18T00:13:46;-5.70;99.90
4896;DHT22;2463;49.948;8.472;2022-12-18T00:18:54;-5.80;99.90
4896;DHT22;2463;49.948;8.472;2022-12-18T00:21:21;-5.90;99.90
4896;DHT22;2463;49.948;8.472;2022-12-18T00:23:49;-6.00;99.90
4896;DHT22;2463;49.948;8.472;2022-12-18T00:26:20;-6.00;99.90
4896;DHT22;2463;49.948;8.472;2022-12-18T00:28:47;-6.10;99.90
4896;DHT22;2463;49.948;8.472;2022-12-18T00:31:16;-6.10;99.90
4896;DHT22;2463;49.948;8.472;2022-12-18T00:33:44;-6.20;99.90
4896;DHT22;2463;49.948;8.472;2022-12-18T00:36:16;-6.30;99.90
4896;DHT22;2463;49.948;8.472;2022-12-18T00:38:44;-6.30;99.90
4896;DHT22;2463;49.948;8.472;2022-12-18T00:41:12;-6.40;99.90
4896;DHT22;2463;49.948;8.472;2022-12-18T00:43:39;-6.40;99.90
4896;DHT22;2463;49.948;8.472;2022-12-18T00:46:07;-6.50;99.90
4896;DHT22;2463;49.948;8.472;2022-12-18T00:48:35;-6.50;99.90
4896;DHT22;2463;49.948;8.472;2022-12-18T00:51:01;-6.50;99.90
4896;DHT22;2463;49.948;8.472;2022-12-18T00:53:28;-6.60;99.90
4896;DHT22;2463;49.948;8.472;2022-12-18T00:55:55;-6.60;99.90
4896;DHT22;2463;49.948;8.472;2022-12-18T00:58:21;-6.70;99.90
4896;DHT22;2463;49.948;8.472;2022-12-18T01:00:48;-6.70;99.90
4896;DHT22;2463;49.948;8.472;2022-12-18T01:03:15;-6.80;99.90
4896;DHT22;2463;49.948;8.472;2022-12-18T01:05:42;-6.80;99.90
4896;DHT22;2463;49.948;8.472;2022-12-18T01:08:09;-6.80;99.90
4896;DHT22;2463;49.948;8.472;2022-12-18T01:10:36;-6.80;99.90
4896;DHT22;2463;49.948;8.472;2022-12-18T01:13:03;-6.90;99.90
4896;DHT22;2463;49.948;8.472;2022-12-18T01:15:29;-6.90;99.90
4896;DHT22;2463;49.948;8.472;2022-12-18T01:17:56;-7.00;99.90
4896;DHT22;2463;49.948;8.472;2022-12-18T01:20:23;-7.10;99.90
4896;DHT22;2463;49.948;8.472;2022-12-18T01:22:49;-7.10;99.90
4896;DHT22;2463;49.948;8.472;2022-12-18T01:25:16;-7.10;99.90
4896;DHT22;2463;49.948;8.472;2022-12-18T01:27:43;-7.20;99.90
4896;DHT22;2463;49.948;8.472;2022-12-18T01:30:10;-7.20;99.90
4896;DHT22;2463;49.948;8.472;2022-12-18T01:32:37;-7.20;99.90
4896;DHT22;2463;49.948;8.472;2022-12-18T01:35:04;-7.20;99.90
4896;DHT22;2463;49.948;8.472;2022-12-18T01:37:30;-7.30;99.90
4896;DHT22;2463;49.948;8.472;2022-12-18T01:39:57;-7.20;99.90
4896;DHT22;2463;49.948;8.472;2022-12-18T01:42:24;-7.40;99.90
4896;DHT22;2463;49.948;8.472;2022-12-18T01:49:54;-7.40;99.90
4896;DHT22;2463;49.948;8.472;2022-12-18T01:52:22;-7.50;99.90
4896;DHT22;2463;49.948;8.472;2022-12-18T01:54:52;-7.50;99.90
4896;DHT22;2463;49.948;8.472;2022-12-18T01:57:19;-7.50;99.90
4896;DHT22;2463;49.948;8.472;2022-12-18T01:59:50;-7.40;99.90
4896;DHT22;2463;49.948;8.472;2022-12-18T02:02:19;-7.60;99.90
4896;DHT22;2463;49.948;8.472;2022-12-18T02:04:46;-7.50;99.90
4896;DHT22;2463;49.948;8.472;2022-12-18T02:10:19;-7.60;99.90
4896;DHT22;2463;49.948;8.472;2022-12-18T02:15:48;-7.60;99.90
4896;DHT22;2463;49.948;8.472;2022-12-18T02:18:32;-7.70;99.90
4896;DHT22;2463;49.948;8.472;2022-12-18T02:23:47;-7.60;99.90
4896;DHT22;2463;49.948;8.472;2022-12-18T02:26:49;-7.50;99.90
4896;DHT22;2463;49.948;8.472;2022-12-18T02:29:24;-7.50;99.90
4896;DHT22;2463;49.948;8.472;2022-12-18T02:31:57;-7.40;99.90
4896;DHT22;2463;49.948;8.472;2022-12-18T02:34:29;-7.40;99.90
4896;DHT22;2463;49.948;8.472;2022-12-18T02:36:59;-7.30;99.90
4896;DHT22;2463;49.948;8.472;2022-12-18T02:39:29;-7.40;99.90
4896;DHT22;2463;49.948;8.472;2022-12-18T02:41:57;-7.40;99.90
4896;DHT22;2463;49.948;8.472;2022-12-18T02:44:24;-7.40;99.90
4896;DHT22;2463;49.948;8.472;2022-12-18T02:46:53;-7.40;99.90
4896;DHT22;2463;49.948;8.472;2022-12-18T02:49:29;-7.30;99.90
4896;DHT22;2463;49.948;8.472;2022-12-18T02:52:21;-7.40;99.90
4896;DHT22;2463;49.948;8.472;2022-12-18T02:55:18;-7.30;99.90
4896;DHT22;2463;49.948;8.472;2022-12-18T02:57:58;-7.30;99.90
4896;DHT22;2463;49.948;8.472;2022-12-18T03:00:37;-7.30;99.90
4896;DHT22;2463;49.948;8.472;2022-12-18T03:05:55;-7.30;99.90
4896;DHT22;2463;49.948;8.472;2022-12-18T03:08:26;-7.30;99.90
4896;DHT22;2463;49.948;8.472;2022-12-18T03:10:58;-7.30;99.90
4896;DHT22;2463;49.948;8.472;2022-12-18T03:13:50;-7.30;99.90
4896;DHT22;2463;49.948;8.472;2022-12-18T03:16:22;-7.30;99.90
4896;DHT22;2463;49.948;8.472;2022-12-18T03:19:14;-7.30;99.90
4896;DHT22;2463;49.948;8.472;2022-12-18T03:21:54;-7.30;99.90
4896;DHT22;2463;49.948;8.472;2022-12-18T03:24:23;-7.20;99.90
4896;DHT22;2463;49.948;8.472;2022-12-18T03:26:57;-7.20;99.90
4896;DHT22;2463;49.948;8.472;2022-12-18T03:29:36;-7.20;99.90
4896;DHT22;2463;49.948;8.472;2022-12-18T03:32:11;-7.20;99.90
4896;DHT22;2463;49.948;8.472;2022-12-18T03:34:40;-7.20;99.90
4896;DHT22;2463;49.948;8.472;2022-12-18T03:37:08;-7.20;99.90
4896;DHT22;2463;49.948;8.472;2022-12-18T03:39:37;-7.20;99.90
4896;DHT22;2463;49.948;8.472;2022-12-18T03:47:36;-7.20;99.90
4896;DHT22;2463;49.948;8.472;2022-12-18T03:50:22;-7.10;99.90
4896;DHT22;2463;49.948;8.472;2022-12-18T03:53:10;-7.00;99.90
4896;DHT22;2463;49.948;8.472;2022-12-18T03:55:41;-7.10;99.90
4896;DHT22;2463;49.948;8.472;2022-12-18T03:58:11;-7.10;99.90
4896;DHT22;2463;49.948;8.472;2022-12-18T04:00:40;-7.00;99.90
4896;DHT22;2463;49.948;8.472;2022-12-18T04:03:07;-7.00;99.90
4896;DHT22;2463;49.948;8.472;2022-12-18T04:05:35;-7.00;99.90
4896;DHT22;2463;49.948;8.472;2022-12-18T04:08:04;-6.80;99.90
4896;DHT22;2463;49.948;8.472;2022-12-18T04:10:31;-6.90;99.90
4896;DHT22;2463;49.948;8.472;2022-12-18T04:12:58;-6.90;99.90
4896;DHT22;2463;49.948;8.472;2022-12-18T04:15:25;-6.90;99.90
4896;DHT22;2463;49.948;8.472;2022-12-18T04:17:52;-6.90;99.90
4896;DHT22;2463;49.948;8.472;2022-12-18T04:20:18;-6.90;99.90
4896;DHT22;2463;49.948;8.472;2022-12-18T04:22:46;-6.90;99.90
4896;DHT22;2463;49.948;8.472;2022-12-18T04:25:13;-6.90;99.90
4896;DHT22;2463;49.948;8.472;2022-12-18T04:27:40;-6.90;99.90
4896;DHT22;2463;49.948;8.472;2022-12-18T04:30:07;-6.90;99.90
4896;DHT22;2463;49.948;8.472;2022-12-18T04:32:34;-6.90;99.90
4896;DHT22;2463;49.948;8.472;2022-12-18T04:35:01;-6.90;99.90
4896;DHT22;2463;49.948;8.472;2022-12-18T04:37:30;-6.90;99.90
4896;DHT22;2463;49.948;8.472;2022-12-18T04:39:57;-6.90;99.90
4896;DHT22;2463;49.948;8.472;2022-12-18T04:42:23;-6.80;99.90
4896;DHT22;2463;49.948;8.472;2022-12-18T04:44:50;-6.90;99.90
4896;DHT22;2463;49.948;8.472;2022-12-18T04:47:16;-6.80;99.90
4896;DHT22;2463;49.948;8.472;2022-12-18T04:49:43;-6.90;99.90
4896;DHT22;2463;49.948;8.472;2022-12-18T04:52:10;-6.80;99.90
4896;DHT22;2463;49.948;8.472;2022-12-18T04:54:36;-6.80;99.90
4896;DHT22;2463;49.948;8.472;2022-12-18T04:57:03;-6.80;99.90
4896;DHT22;2463;49.948;8.472;2022-12-18T04:59:30;-6.80;99.90
4896;DHT22;2463;49.948;8.472;2022-12-18T05:01:56;-6.70;99.90
4896;DHT22;2463;49.948;8.472;2022-12-18T05:04:23;-6.80;99.90
4896;DHT22;2463;49.948;8.472;2022-12-18T05:06:50;-6.70;99.90
4896;DHT22;2463;49.948;8.472;2022-12-18T05:09:17;-6.80;99.90
4896;DHT22;2463;49.948;8.472;2022-12-18T05:11:45;-6.70;99.90
4896;DHT22;2463;49.948;8.472;2022-12-18T05:14:11;-6.90;99.90
4896;DHT22;2463;49.948;8.472;2022-12-18T05:16:38;-6.80;99.90
4896;DHT22;2463;49.948;8.472;2022-12-18T05:19:05;-6.80;99.90
4896;DHT22;2463;49.948;8.472;2022-12-18T05:21:31;-6.80;99.90
4896;DHT22;2463;49.948;8.472;2022-12-18T05:23:58;-6.70;99.90
4896;DHT22;2463;49.948;8.472;2022-12-18T05:26:25;-6.70;99.90
4896;DHT22;2463;49.948;8.472;2022-12-18T05:28:51;-6.80;99.90
4896;DHT22;2463;49.948;8.472;2022-12-18T05:31:18;-6.80;99.90
4896;DHT22;2463;49.948;8.472;2022-12-18T05:33:45;-6.70;99.90
4896;DHT22;2463;49.948;8.472;2022-12-18T05:36:12;-6.80;99.90
4896;DHT22;2463;49.948;8.472;2022-12-18T05:38:39;-6.90;99.90
4896;DHT22;2463;49.948;8.472;2022-12-18T05:41:07;-6.90;99.90
4896;DHT22;2463;49.948;8.472;2022-12-18T05:43:38;-6.90;99.90
4896;DHT22;2463;49.948;8.472;2022-12-18T05:46:08;-7.00;99.90
4896;DHT22;2463;49.948;8.472;2022-12-18T05:48:35;-6.90;99.90
4896;DHT22;2463;49.948;8.472;2022-12-18T05:51:10;-7.00;99.90
4896;DHT22;2463;49.948;8.472;2022-12-18T05:53:37;-7.00;99.90
4896;DHT22;2463;49.948;8.472;2022-12-18T05:56:08;-7.00;99.90
4896;DHT22;2463;49.948;8.472;2022-12-18T05:58:35;-7.00;99.90
4896;DHT22;2463;49.948;8.472;2022-12-18T06:03:37;-7.00;99.90
4896;DHT22;2463;49.948;8.472;2022-12-18T06:06:20;-7.00;99.90
4896;DHT22;2463;49.948;8.472;2022-12-18T06:08:47;-6.90;99.90
4896;DHT22;2463;49.948;8.472;2022-12-18T06:11:17;-6.90;99.90
4896;DHT22;2463;49.948;8.472;2022-12-18T06:13:44;-7.00;99.90
4896;DHT22;2463;49.948;8.472;2022-12-18T06:16:11;-7.00;99.90
4896;DHT22;2463;49.948;8.472;2022-12-18T06:18:38;-6.90;99.90
4896;DHT22;2463;49.948;8.472;2022-12-18T06:21:05;-6.90;99.90
4896;DHT22;2463;49.948;8.472;2022-12-18T06:23:31;-6.90;99.90
4896;DHT22;2463;49.948;8.472;2022-12-18T06:25:58;-7.00;99.90
4896;DHT22;2463;49.948;8.472;2022-12-18T06:28:25;-7.00;99.90
4896;DHT22;2463;49.948;8.472;2022-12-18T06:30:51;-7.00;99.90
4896;DHT22;2463;49.948;8.472;2022-12-18T06:33:19;-7.00;99.90
4896;DHT22;2463;49.948;8.472;2022-12-18T06:35:46;-7.00;99.90
4896;DHT22;2463;49.948;8.472;2022-12-18T06:38:12;-7.10;99.90
4896;DHT22;2463;49.948;8.472;2022-12-18T06:40:39;-7.10;99.90
4896;DHT22;2463;49.948;8.472;2022-12-18T06:43:06;-7.10;99.90
4896;DHT22;2463;49.948;8.472;2022-12-18T06:45:33;-6.70;99.90
4896;DHT22;2463;49.948;8.472;2022-12-18T06:48:00;-7.20;99.90
4896;DHT22;2463;49.948;8.472;2022-12-18T06:50:27;-7.30;99.90
4896;DHT22;2463;49.948;8.472;2022-12-18T06:52:53;-7.30;99.90
4896;DHT22;2463;49.948;8.472;2022-12-18T06:55:20;-7.30;99.90
4896;DHT22;2463;49.948;8.472;2022-12-18T06:57:47;-7.40;99.90
4896;DHT22;2463;49.948;8.472;2022-12-18T07:00:14;-7.30;99.90
4896;DHT22;2463;49.948;8.472;2022-12-18T07:02:40;-7.50;99.90
4896;DHT22;2463;49.948;8.472;2022-12-18T07:05:07;-7.40;99.90
4896;DHT22;2463;49.948;8.472;2022-12-18T07:07:36;-7.70;99.90
4896;DHT22;2463;49.948;8.472;2022-12-18T07:10:03;-7.70;99.90
4896;DHT22;2463;49.948;8.472;2022-12-18T07:12:30;-7.80;99.90
4896;DHT22;2463;49.948;8.472;2022-12-18T07:14:57;-7.70;99.90
4896;DHT22;2463;49.948;8.472;2022-12-18T07:17:23;-7.80;99.90
4896;DHT22;2463;49.948;8.472;2022-12-18T07:19:50;-7.90;99.90
4896;DHT22;2463;49.948;8.472;2022-12-18T07:22:17;-8.00;99.90
4896;DHT22;2463;49.948;8.472;2022-12-18T07:24:44;-7.90;99.90
4896;DHT22;2463;49.948;8.472;2022-12-18T07:27:10;-8.10;99.90
4896;DHT22;2463;49.948;8.472;2022-12-18T07:29:37;-8.10;99.90
4896;DHT22;2463;49.948;8.472;2022-12-18T07:32:05;-8.10;99.90
4896;DHT22;2463;49.948;8.472;2022-12-18T07:34:31;-8.00;99.90
4896;DHT22;2463;49.948;8.472;2022-12-18T07:36:58;-8.00;99.90
4896;DHT22;2463;49.948;8.472;2022-12-18T07:39:25;-7.80;99.90
4896;DHT22;2463;49.948;8.472;2022-12-18T07:41:52;-7.80;99.90
4896;DHT22;2463;49.948;8.472;2022-12-18T07:44:37;-7.80;99.90
4896;DHT22;2463;49.948;8.472;2022-12-18T07:47:04;-7.80;99.90
4896;DHT22;2463;49.948;8.472;2022-12-18T07:49:37;-7.80;99.90
4896;DHT22;2463;49.948;8.472;2022-12-18T07:52:04;-7.80;99.90
4896;DHT22;2463;49.948;8.472;2022-12-18T07:54:30;-7.70;99.90
4896;DHT22;2463;49.948;8.472;2022-12-18T07:56:57;-7.70;99.90
4896;DHT22;2463;49.948;8.472;2022-12-18T07:59:24;-7.70;99.90
4896;DHT22;2463;49.948;8.472;2022-12-18T08:01:50;-7.80;99.90
4896;DHT22;2463;49.948;8.472;2022-12-18T08:04:17;-7.80;99.90
4896;DHT22;2463;49.948;8.472;2022-12-18T08:06:44;-7.90;99.90
4896;DHT22;2463;49.948;8.472;2022-12-18T08:09:14;-7.90;99.90
4896;DHT22;2463;49.948;8.472;2022-12-18T08:11:40;-7.80;99.90
4896;DHT22;2463;49.948;8.472;2022-12-18T08:14:07;-7.70;99.90
4896;DHT22;2463;49.948;8.472;2022-12-18T08:16:34;-7.60;99.90
4896;DHT22;2463;49.948;8.472;2022-12-18T08:19:01;-7.50;99.90
4896;DHT22;2463;49.948;8.472;2022-12-18T08:21:30;-7.40;99.90
4896;DHT22;2463;49.948;8.472;2022-12-18T08:23:59;-7.40;99.90
4896;DHT22;2463;49.948;8.472;2022-12-18T08:26:28;-7.40;99.90
4896;DHT22;2463;49.948;8.472;2022-12-18T08:28:56;-7.40;99.90
4896;DHT22;2463;49.948;8.472;2022-12-18T08:31:25;-7.30;99.90
4896;DHT22;2463;49.948;8.472;2022-12-18T08:33:53;-7.20;99.90
4896;DHT22;2463;49.948;8.472;2022-12-18T08:36:21;-7.20;99.90
4896;DHT22;2463;49.948;8.472;2022-12-18T08:38:50;-7.10;99.90
4896;DHT22;2463;49.948;8.472;2022-12-18T08:41:17;-7.00;99.90
4896;DHT22;2463;49.948;8.472;2022-12-18T08:43:44;-6.90;99.90
4896;DHT22;2463;49.948;8.472;2022-12-18T08:46:38;-6.70;99.90
4896;DHT22;2463;49.948;8.472;2022-12-18T08:49:06;-6.60;99.90
4896;DHT22;2463;49.948;8.472;2022-12-18T08:51:34;-6.40;99.90
4896;DHT22;2463;49.948;8.472;2022-12-18T08:54:01;-6.60;99.90
4896;DHT22;2463;49.948;8.472;2022-12-18T08:56:28;-6.50;99.90
4896;DHT22;2463;49.948;8.472;2022-12-18T08:58:56;-6.40;99.90
4896;DHT22;2463;49.948;8.472;2022-12-18T09:01:23;-6.40;99.90
4896;DHT22;2463;49.948;8.472;2022-12-18T09:03:50;-6.30;99.90
4896;DHT22;2463;49.948;8.472;2022-12-18T09:06:20;-6.20;99.90
4896;DHT22;2463;49.948;8.472;2022-12-18T09:08:47;-6.00;99.90
4896;DHT22;2463;49.948;8.472;2022-12-18T09:11:22;-5.80;99.90
4896;DHT22;2463;49.948;8.472;2022-12-18T09:13:50;-5.50;99.90
4896;DHT22;2463;49.948;8.472;2022-12-18T09:16:17;-6.40;99.90
4896;DHT22;2463;49.948;8.472;2022-12-18T09:18:46;-4.90;99.90
4896;DHT22;2463;49.948;8.472;2022-12-18T09:21:19;-5.20;99.90
4896;DHT22;2463;49.948;8.472;2022-12-18T09:23:51;-4.00;99.90
4896;DHT22;2463;49.948;8.472;2022-12-18T09:26:17;-3.10;99.90
4896;DHT22;2463;49.948;8.472;2022-12-18T09:28:44;-1.70;99.90
4896;DHT22;2463;49.948;8.472;2022-12-18T09:31:12;0.20;99.90
4896;DHT22;2463;49.948;8.472;2022-12-18T09:33:39;2.20;99.90
4896;DHT22;2463;49.948;8.472;2022-12-18T09:36:09;3.90;99.90
4896;DHT22;2463;49.948;8.472;2022-12-18T09:38:37;5.70;99.90
4896;DHT22;2463;49.948;8.472;2022-12-18T09:49:50;11.20;88.10
4896;DHT22;2463;49.948;8.472;2022-12-18T09:52:23;12.30;80.00
4896;DHT22;2463;49.948;8.472;2022-12-18T09:54:57;13.20;76.30
4896;DHT22;2463;49.948;8.472;2022-12-18T09:57:26;13.90;72.50
4896;DHT22;2463;49.948;8.472;2022-12-18T09:59:56;14.30;67.70
4896;DHT22;2463;49.948;8.472;2022-12-18T10:02:26;14.50;64.70
4896;DHT22;2463;49.948;8.472;2022-12-18T10:07:39;14.70;60.30
4896;DHT22;2463;49.948;8.472;2022-12-18T10:10:16;14.70;58.70
4896;DHT22;2463;49.948;8.472;2022-12-18T10:21:18;16.40;55.30
4896;DHT22;2463;49.948;8.472;2022-12-18T10:26:41;15.90;54.00
4896;DHT22;2463;49.948;8.472;2022-12-18T10:29:17;15.10;54.00
4896;DHT22;2463;49.948;8.472;2022-12-18T10:31:43;14.90;53.30
4896;DHT22;2463;49.948;8.472;2022-12-18T10:34:11;14.60;54.00
4896;DHT22;2463;49.948;8.472;2022-12-18T10:36:38;14.60;54.80
4896;DHT22;2463;49.948;8.472;2022-12-18T10:39:24;13.80;53.60
4896;DHT22;2463;49.948;8.472;2022-12-18T10:42:18;12.90;54.30
4896;DHT22;2463;49.948;8.472;2022-12-18T10:44:46;12.00;55.40
4896;DHT22;2463;49.948;8.472;2022-12-18T10:47:27;11.20;57.00
4896;DHT22;2463;49.948;8.472;2022-12-18T10:49:54;10.80;59.50
4896;DHT22;2463;49.948;8.472;2022-12-18T10:52:23;10.30;59.70
4896;DHT22;2463;49.948;8.472;2022-12-18T10:55:02;9.90;62.60
4896;DHT22;2463;49.948;8.472;2022-12-18T10:57:36;9.50;62.90
4896;DHT22;2463;49.948;8.472;2022-12-18T11:00:23;8.90;64.80
4896;DHT22;2463;49.948;8.472;2022-12-18T11:02:51;8.30;66.10
4896;DHT22;2463;49.948;8.472;2022-12-18T11:07:54;7.40;68.10
4896;DHT22;2463;49.948;8.472;2022-12-18T11:10:28;7.20;68.60
4896;DHT22;2463;49.948;8.472;2022-12-18T11:15:44;7.40;74.20
4896;DHT22;2463;49.948;8.472;2022-12-18T11:18:19;7.80;73.20
4896;DHT22;2463;49.948;8.472;2022-12-18T11:20:57;8.40;72.70
4896;DHT22;2463;49.948;8.472;2022-12-18T11:23:26;8.10;68.80
4896;DHT22;2463;49.948;8.472;2022-12-18T11:26:04;7.80;71.10
4896;DHT22;2463;49.948;8.472;2022-12-18T11:31:19;7.30;71.40
4896;DHT22;2463;49.948;8.472;2022-12-18T11:37:00;6.50;74.30
4896;DHT22;2463;49.948;8.472;2022-12-18T11:39:37;6.40;76.20
4896;DHT22;2463;49.948;8.472;2022-12-18T11:42:18;6.30;75.20
4896;DHT22;2463;49.948;8.472;2022-12-18T11:48:04;6.60;77.90
4896;DHT22;2463;49.948;8.472;2022-12-18T11:50:53;6.10;78.80
4896;DHT22;2463;49.948;8.472;2022-12-18T11:53:21;6.20;80.40
4896;DHT22;2463;49.948;8.472;2022-12-18T11:58:50;5.50;83.20
4896;DHT22;2463;49.948;8.472;2022-12-18T12:03:57;5.80;85.40
4896;DHT22;2463;49.948;8.472;2022-12-18T12:06:37;5.80;85.40
4896;DHT22;2463;49.948;8.472;2022-12-18T12:12:05;5.20;84.00
4896;DHT22;2463;49.948;8.472;2022-12-18T12:17:31;4.60;88.20
4896;DHT22;2463;49.948;8.472;2022-12-18T12:23:13;4.00;90.70
4896;DHT22;2463;49.948;8.472;2022-12-18T12:25:48;4.00;92.20
4896;DHT22;2463;49.948;8.472;2022-12-18T12:28:24;3.80;92.00
4896;DHT22;2463;49.948;8.472;2022-12-18T12:31:37;3.70;93.40
4896;DHT22;2463;49.948;8.472;2022-12-18T12:34:24;3.20;93.80
4896;DHT22;2463;49.948;8.472;2022-12-18T12:37:15;3.00;93.40
4896;DHT22;2463;49.948;8.472;2022-12-18T12:39:47;2.90;95.10
4896;DHT22;2463;49.948;8.472;2022-12-18T12:42:41;2.80;95.70
4896;DHT22;2463;49.948;8.472;2022-12-18T12:45:34;2.80;96.80
4896;DHT22;2463;49.948;8.472;2022-12-18T12:48:05;2.70;97.90
4896;DHT22;2463;49.948;8.472;2022-12-18T12:50:34;2.40;97.00
4896;DHT22;2463;49.948;8.472;2022-12-18T12:53:07;2.20;98.40
4896;DHT22;2463;49.948;8.472;2022-12-18T12:55:37;2.20;99.00
4896;DHT22;2463;49.948;8.472;2022-12-18T12:58:15;1.70;98.70
4896;DHT22;2463;49.948;8.472;2022-12-18T13:01:23;1.60;99.90
4896;DHT22;2463;49.948;8.472;2022-12-18T13:06:42;1.40;99.90
4896;DHT22;2463;49.948;8.472;2022-12-18T13:09:11;1.30;99.90
4896;DHT22;2463;49.948;8.472;2022-12-18T13:11:43;1.10;99.90
4896;DHT22;2463;49.948;8.472;2022-12-18T13:20:06;0.70;99.90
4896;DHT22;2463;49.948;8.472;2022-12-18T13:25:29;0.40;99.90
4896;DHT22;2463;49.948;8.472;2022-12-18T13:40:59;0.00;99.90
4896;DHT22;2463;49.948;8.472;2022-12-18T13:43:42;-0.10;99.90
4896;DHT22;2463;49.948;8.472;2022-12-18T13:46:27;-0.20;99.90
4896;DHT22;2463;49.948;8.472;2022-12-18T13:51:33;-0.10;99.90
4896;DHT22;2463;49.948;8.472;2022-12-18T13:54:02;-0.20;99.90
4896;DHT22;2463;49.948;8.472;2022-12-18T13:56:33;-0.30;99.90
4896;DHT22;2463;49.948;8.472;2022-12-18T14:01:56;-0.60;99.90
4896;DHT22;2463;49.948;8.472;2022-12-18T14:04:32;-0.60;99.90
4896;DHT22;2463;49.948;8.472;2022-12-18T14:07:09;-0.70;99.90
4896;DHT22;2463;49.948;8.472;2022-12-18T14:09:58;-0.80;99.90
4896;DHT22;2463;49.948;8.472;2022-12-18T14:12:48;-0.80;99.90
4896;DHT22;2463;49.948;8.472;2022-12-18T14:15:32;-0.70;99.90
4896;DHT22;2463;49.948;8.472;2022-12-18T14:20:43;-0.70;99.90
4896;DHT22;2463;49.948;8.472;2022-12-18T14:23:32;-0.70;99.90
4896;DHT22;2463;49.948;8.472;2022-12-18T14:26:00;-0.70;99.90
4896;DHT22;2463;49.948;8.472;2022-12-18T14:28:31;-0.60;99.90
4896;DHT22;2463;49.948;8.472;2022-12-18T14:30:58;-0.60;99.90
4896;DHT22;2463;49.948;8.472;2022-12-18T14:33:27;-0.60;99.90
4896;DHT22;2463;49.948;8.472;2022-12-18T14:36:04;-0.60;99.90
4896;DHT22;2463;49.948;8.472;2022-12-18T14:38:38;-0.60;99.90
4896;DHT22;2463;49.948;8.472;2022-12-18T14:43:38;-0.60;99.90
4896;DHT22;2463;49.948;8.472;2022-12-18T14:49:02;-0.70;99.90
4896;DHT22;2463;49.948;8.472;2022-12-18T14:51:32;-0.70;99.90
4896;DHT22;2463;49.948;8.472;2022-12-18T14:54:05;-0.80;99.90
4896;DHT22;2463;49.948;8.472;2022-12-18T14:56:35;-0.90;99.90
4896;DHT22;2463;49.948;8.472;2022-12-18T14:59:05;-1.00;99.90
4896;DHT22;2463;49.948;8.472;2022-12-18T15:09:31;-1.20;99.90
4896;DHT22;2463;49.948;8.472;2022-12-18T15:11:59;-1.30;99.90
4896;DHT22;2463;49.948;8.472;2022-12-18T15:17:27;-1.40;99.90
4896;DHT22;2463;49.948;8.472;2022-12-18T15:20:09;-1.40;99.90
4896;DHT22;2463;49.948;8.472;2022-12-18T15:22:37;-1.40;99.90
4896;DHT22;2463;49.948;8.472;2022-12-18T15:25:30;-1.40;99.90
4896;DHT22;2463;49.948;8.472;2022-12-18T15:27:58;-1.50;99.90
4896;DHT22;2463;49.948;8.472;2022-12-18T15:30:25;-1.60;99.90
4896;DHT22;2463;49.948;8.472;2022-12-18T15:33:16;-1.60;99.90
4896;DHT22;2463;49.948;8.472;2022-12-18T15:35:43;-1.70;99.90
4896;DHT22;2463;49.948;8.472;2022-12-18T15:38:12;-1.70;99.90
4896;DHT22;2463;49.948;8.472;2022-12-18T15:40:39;-1.80;99.90
4896;DHT22;2463;49.948;8.472;2022-12-18T15:43:08;-1.80;99.90
4896;DHT22;2463;49.948;8.472;2022-12-18T15:45:54;-1.90;99.90
4896;DHT22;2463;49.948;8.472;2022-12-18T15:48:22;-1.90;99.90
4896;DHT22;2463;49.948;8.472;2022-12-18T15:50:53;-1.90;99.90
4896;DHT22;2463;49.948;8.472;2022-12-18T15:53:22;-1.90;99.90
4896;DHT22;2463;49.948;8.472;2022-12-18T15:55:48;-1.90;99.90
4896;DHT22;2463;49.948;8.472;2022-12-18T15:58:34;-1.90;99.90
4896;DHT22;2463;49.948;8.472;2022-12-18T16:01:01;-1.90;99.90
4896;DHT22;2463;49.948;8.472;2022-12-18T16:03:29;-1.90;99.90
4896;DHT22;2463;49.948;8.472;2022-12-18T16:05:56;-1.90;99.90
4896;DHT22;2463;49.948;8.472;2022-12-18T16:08:25;-1.90;99.90
4896;DHT22;2463;49.948;8.472;2022-12-18T16:10:52;-1.90;99.90
4896;DHT22;2463;49.948;8.472;2022-12-18T16:13:19;-1.90;99.90
4896;DHT22;2463;49.948;8.472;2022-12-18T16:15:47;-1.90;99.90
4896;DHT22;2463;49.948;8.472;2022-12-18T16:18:14;-1.90;99.90
4896;DHT22;2463;49.948;8.472;2022-12-18T16:20:41;-1.90;99.90
4896;DHT22;2463;49.948;8.472;2022-12-18T16:23:08;-1.90;99.90
4896;DHT22;2463;49.948;8.472;2022-12-18T16:25:34;-2.00;99.90
4896;DHT22;2463;49.948;8.472;2022-12-18T16:28:01;-2.10;99.90
4896;DHT22;2463;49.948;8.472;2022-12-18T16:30:29;-2.10;99.90
4896;DHT22;2463;49.948;8.472;2022-12-18T16:33:04;-2.20;99.90
4896;DHT22;2463;49.948;8.472;2022-12-18T16:35:32;-2.20;99.90
4896;DHT22;2463;49.948;8.472;2022-12-18T16:37:59;-2.10;99.90
4896;DHT22;2463;49.948;8.472;2022-12-18T16:40:26;-2.20;99.90
4896;DHT22;2463;49.948;8.472;2022-12-18T16:42:53;-2.20;99.90
4896;DHT22;2463;49.948;8.472;2022-12-18T16:45:19;-2.20;99.90
4896;DHT22;2463;49.948;8.472;2022-12-18T16:47:46;-2.10;99.90
4896;DHT22;2463;49.948;8.472;2022-12-18T16:50:13;-2.10;99.90
4896;DHT22;2463;49.948;8.472;2022-12-18T16:52:40;-2.10;99.90
4896;DHT22;2463;49.948;8.472;2022-12-18T16:55:07;-2.00;99.90
4896;DHT22;2463;49.948;8.472;2022-12-18T16:57:34;-2.00;99.90
4896;DHT22;2463;49.948;8.472;2022-12-18T17:00:01;-2.00;99.90
4896;DHT22;2463;49.948;8.472;2022-12-18T17:02:31;-2.00;99.90
4896;DHT22;2463;49.948;8.472;2022-12-18T17:04:58;-2.00;99.90
4896;DHT22;2463;49.948;8.472;2022-12-18T17:07:26;-2.00;99.90
4896;DHT22;2463;49.948;8.472;2022-12-18T17:09:54;-2.00;99.90
4896;DHT22;2463;49.948;8.472;2022-12-18T17:12:21;-2.00;99.90
4896;DHT22;2463;49.948;8.472;2022-12-18T17:14:48;-2.00;99.90
4896;DHT22;2463;49.948;8.472;2022-12-18T17:17:16;-2.00;99.90
4896;DHT22;2463;49.948;8.472;2022-12-18T17:19:48;-2.00;99.90
4896;DHT22;2463;49.948;8.472;2022-12-18T17:22:15;-2.00;99.90
4896;DHT22;2463;49.948;8.472;2022-12-18T17:24:42;-1.90;99.90
4896;DHT22;2463;49.948;8.472;2022-12-18T17:27:08;-1.90;99.90
4896;DHT22;2463;49.948;8.472;2022-12-18T17:29:35;-1.90;99.90
4896;DHT22;2463;49.948;8.472;2022-12-18T17:32:02;-1.90;99.90
4896;DHT22;2463;49.948;8.472;2022-12-18T17:34:29;-1.90;99.90
4896;DHT22;2463;49.948;8.472;2022-12-18T17:36:56;-1.90;99.90
4896;DHT22;2463;49.948;8.472;2022-12-18T17:39:23;-1.90;99.90
4896;DHT22;2463;49.948;8.472;2022-12-18T17:41:49;-2.00;99.90
4896;DHT22;2463;49.948;8.472;2022-12-18T17:44:17;-2.00;99.90
4896;DHT22;2463;49.948;8.472;2022-12-18T17:46:44;-2.00;99.90
4896;DHT22;2463;49.948;8.472;2022-12-18T17:49:12;-2.00;99.90
4896;DHT22;2463;49.948;8.472;2022-12-18T17:51:40;-1.90;99.90
4896;DHT22;2463;49.948;8.472;2022-12-18T17:54:08;-1.90;99.90
4896;DHT22;2463;49.948;8.472;2022-12-18T17:56:39;-1.90;99.90
4896;DHT22;2463;49.948;8.472;2022-12-18T17:59:06;-1.90;99.90
4896;DHT22;2463;49.948;8.472;2022-12-18T18:01:33;-1.80;99.90
4896;DHT22;2463;49.948;8.472;2022-12-18T18:04:08;-1.80;99.90
4896;DHT22;2463;49.948;8.472;2022-12-18T18:06:34;-1.80;99.90
4896;DHT22;2463;49.948;8.472;2022-12-18T18:09:05;-1.80;99.90
4896;DHT22;2463;49.948;8.472;2022-12-18T18:11:42;-1.80;99.90
4896;DHT22;2463;49.948;8.472;2022-12-18T18:14:28;-1.80;99.90
4896;DHT22;2463;49.948;8.472;2022-12-18T18:16:55;-1.80;99.90
4896;DHT22;2463;49.948;8.472;2022-12-18T18:19:24;-1.80;99.90
4896;DHT22;2463;49.948;8.472;2022-12-18T18:21:52;-1.70;99.90
4896;DHT22;2463;49.948;8.472;2022-12-18T18:24:21;-1.70;99.90
4896;DHT22;2463;49.948;8.472;2022-12-18T18:26:51;-1.70;99.90
4896;DHT22;2463;49.948;8.472;2022-12-18T18:29:22;-1.60;99.90
4896;DHT22;2463;49.948;8.472;2022-12-18T18:31:52;-1.60;99.90
4896;DHT22;2463;49.948;8.472;2022-12-18T18:34:24;-1.60;99.90